sensor_id;sensor_type;location;lat;lon;timestamp;pressure;altitude;pressure_sealevel;temperature;humidity
41690;BME280;27372;42.658;23.256;2024-03-22T00:00:33;93845.34;;;7.22;44.47
41690;BME280;27372;42.658;23.256;2024-03-22T00:02:58;93837.69;;;7.52;44.39
41690;BME280;27372;42.658;23.256;2024-03-22T00:05:24;93841.97;;;7.65;44.47
41690;BME280;27372;42.658;23.256;2024-03-22T00:07:50;93831.69;;;7.45;44.50
41690;BME280;27372;42.658;23.256;2024-03-22T00:10:15;93846.03;;;7.61;44.25
41690;BME280;27372;42.658;23.256;2024-03-22T00:12:41;93836.88;;;7.52;45.85
41690;BME280;27372;42.658;23.256;2024-03-22T00:15:07;93839.34;;;7.46;45.78
41690;BME280;27372;42.658;23.256;2024-03-22T00:17:32;93837.50;;;7.47;46.31
41690;BME280;27372;42.658;23.256;2024-03-22T00:19:58;93838.00;;;7.12;47.26
41690;BME280;27372;42.658;23.256;2024-03-22T00:22:24;93842.19;;;6.88;47.16
41690;BME280;27372;42.658;23.256;2024-03-22T00:24:49;93844.91;;;6.74;47.89
41690;BME280;27372;42.658;23.256;2024-03-22T00:27:14;93834.53;;;6.61;47.97
41690;BME280;27372;42.658;23.256;2024-03-22T00:29:40;93831.50;;;6.64;48.18
41690;BME280;27372;42.658;23.256;2024-03-22T00:32:05;93835.38;;;6.55;49.01
41690;BME280;27372;42.658;23.256;2024-03-22T00:34:32;93828.97;;;6.50;48.82
41690;BME280;27372;42.658;23.256;2024-03-22T00:36:58;93844.09;;;6.35;49.39
41690;BME280;27372;42.658;23.256;2024-03-22T00:39:23;93836.41;;;6.47;49.23
41690;BME280;27372;42.658;23.256;2024-03-22T00:41:49;93845.09;;;6.41;49.25
41690;BME280;27372;42.658;23.256;2024-03-22T00:44:14;93837.78;;;5.97;50.13
41690;BME280;27372;42.658;23.256;2024-03-22T00:46:40;93840.41;;;5.97;49.92
41690;BME280;27372;42.658;23.256;2024-03-22T00:49:05;93837.97;;;6.09;49.78
41690;BME280;27372;42.658;23.256;2024-03-22T00:51:30;93834.97;;;6.05;48.83
41690;BME280;27372;42.658;23.256;2024-03-22T00:53:56;93835.38;;;6.02;49.24
41690;BME280;27372;42.658;23.256;2024-03-22T00:56:22;93835.38;;;6.09;49.97
41690;BME280;27372;42.658;23.256;2024-03-22T00:58:47;93834.88;;;6.32;49.72
41690;BME280;27372;42.658;23.256;2024-03-22T01:01:13;93840.66;;;6.41;49.69
41690;BME280;27372;42.658;23.256;2024-03-22T01:03:38;93845.78;;;6.16;50.50
41690;BME280;27372;42.658;23.256;2024-03-22T01:06:04;93843.66;;;6.38;50.26
41690;BME280;27372;42.658;23.256;2024-03-22T01:08:29;93847.28;;;6.37;51.05
41690;BME280;27372;42.658;23.256;2024-03-22T01:10:54;93842.63;;;5.94;51.63
41690;BME280;27372;42.658;23.256;2024-03-22T01:13:20;93839.59;;;6.03;50.30
41690;BME280;27372;42.658;23.256;2024-03-22T01:15:45;93841.81;;;6.00;50.49
41690;BME280;27372;42.658;23.256;2024-03-22T01:18:11;93835.38;;;6.02;51.55
41690;BME280;27372;42.658;23.256;2024-03-22T01:20:37;93839.41;;;6.05;50.86
41690;BME280;27372;42.658;23.256;2024-03-22T01:23:03;93840.38;;;6.11;50.74
41690;BME280;27372;42.658;23.256;2024-03-22T01:25:29;93843.44;;;6.01;50.45
41690;BME280;27372;42.658;23.256;2024-03-22T01:27:55;93840.16;;;6.19;50.55
41690;BME280;27372;42.658;23.256;2024-03-22T01:30:21;93848.00;;;6.12;49.94
41690;BME280;27372;42.658;23.256;2024-03-22T01:32:46;93847.88;;;5.80;51.92
41690;BME280;27372;42.658;23.256;2024-03-22T01:35:11;93836.47;;;5.68;50.84
41690;BME280;27372;42.658;23.256;2024-03-22T01:37:37;93846.66;;;5.83;51.33
41690;BME280;27372;42.658;23.256;2024-03-22T01:40:03;93842.50;;;5.55;51.43
41690;BME280;27372;42.658;23.256;2024-03-22T01:42:30;93842.13;;;5.24;53.53
41690;BME280;27372;42.658;23.256;2024-03-22T01:44:55;93842.13;;;4.91;53.25
41690;BME280;27372;42.658;23.256;2024-03-22T01:47:20;93833.72;;;4.89;52.91
41690;BME280;27372;42.658;23.256;2024-03-22T01:49:47;93830.72;;;4.92;53.57
41690;BME280;27372;42.658;23.256;2024-03-22T01:52:14;93827.13;;;5.06;53.05
41690;BME280;27372;42.658;23.256;2024-03-22T01:54:40;93835.91;;;5.39;50.84
41690;BME280;27372;42.658;23.256;2024-03-22T01:57:05;93833.06;;;5.60;50.17
41690;BME280;27372;42.658;23.256;2024-03-22T01:59:32;93837.84;;;5.77;49.46
41690;BME280;27372;42.658;23.256;2024-03-22T02:01:59;93832.63;;;5.84;49.38
41690;BME280;27372;42.658;23.256;2024-03-22T02:04:24;93820.59;;;5.83;49.97
41690;BME280;27372;42.658;23.256;2024-03-22T02:06:50;93827.78;;;5.87;49.55
41690;BME280;27372;42.658;23.256;2024-03-22T02:09:15;93830.59;;;5.93;49.57
41690;BME280;27372;42.658;23.256;2024-03-22T02:11:41;93837.44;;;5.87;50.03
41690;BME280;27372;42.658;23.256;2024-03-22T02:14:07;93828.97;;;5.98;49.75
41690;BME280;27372;42.658;23.256;2024-03-22T02:16:32;93822.94;;;6.11;48.82
41690;BME280;27372;42.658;23.256;2024-03-22T02:18:57;93819.88;;;6.21;48.79
41690;BME280;27372;42.658;23.256;2024-03-22T02:21:23;93832.13;;;6.14;49.20
41690;BME280;27372;42.658;23.256;2024-03-22T02:23:48;93828.53;;;6.15;49.12
41690;BME280;27372;42.658;23.256;2024-03-22T02:26:13;93834.94;;;6.19;49.14
41690;BME280;27372;42.658;23.256;2024-03-22T02:28:39;93824.69;;;6.24;49.44
41690;BME280;27372;42.658;23.256;2024-03-22T02:31:04;93829.97;;;5.97;49.77
41690;BME280;27372;42.658;23.256;2024-03-22T02:33:30;93827.88;;;6.26;47.90
41690;BME280;27372;42.658;23.256;2024-03-22T02:35:55;93836.94;;;6.24;48.82
41690;BME280;27372;42.658;23.256;2024-03-22T02:38:21;93841.53;;;6.28;49.50
41690;BME280;27372;42.658;23.256;2024-03-22T02:40:48;93838.56;;;6.18;49.32
41690;BME280;27372;42.658;23.256;2024-03-22T02:43:14;93840.16;;;6.19;49.51
41690;BME280;27372;42.658;23.256;2024-03-22T02:45:40;93838.94;;;6.21;49.15
41690;BME280;27372;42.658;23.256;2024-03-22T02:48:06;93833.16;;;6.13;49.25
41690;BME280;27372;42.658;23.256;2024-03-22T02:50:36;93841.31;;;6.23;49.67
41690;BME280;27372;42.658;23.256;2024-03-22T02:53:02;93851.34;;;6.26;50.03
41690;BME280;27372;42.658;23.256;2024-03-22T02:55:27;93855.84;;;6.05;50.54
41690;BME280;27372;42.658;23.256;2024-03-22T02:57:53;93847.03;;;6.00;50.59
41690;BME280;27372;42.658;23.256;2024-03-22T03:00:18;93859.44;;;6.11;49.35
41690;BME280;27372;42.658;23.256;2024-03-22T03:02:45;93856.63;;;6.13;49.55
41690;BME280;27372;42.658;23.256;2024-03-22T03:05:11;93862.56;;;6.27;49.73
41690;BME280;27372;42.658;23.256;2024-03-22T03:07:36;93852.56;;;6.24;49.72
41690;BME280;27372;42.658;23.256;2024-03-22T03:10:02;93862.53;;;6.40;50.44
41690;BME280;27372;42.658;23.256;2024-03-22T03:12:27;93859.25;;;6.51;50.59
41690;BME280;27372;42.658;23.256;2024-03-22T03:14:53;93858.56;;;6.31;52.23
41690;BME280;27372;42.658;23.256;2024-03-22T03:17:18;93869.22;;;6.22;53.14
41690;BME280;27372;42.658;23.256;2024-03-22T03:19:44;93870.16;;;5.69;55.14
41690;BME280;27372;42.658;23.256;2024-03-22T03:22:09;93872.38;;;5.59;55.85
41690;BME280;27372;42.658;23.256;2024-03-22T03:24:35;93859.16;;;5.34;57.50
41690;BME280;27372;42.658;23.256;2024-03-22T03:27:00;93870.97;;;5.23;58.01
41690;BME280;27372;42.658;23.256;2024-03-22T03:29:25;93874.41;;;5.23;58.50
41690;BME280;27372;42.658;23.256;2024-03-22T03:31:51;93869.97;;;5.10;59.04
41690;BME280;27372;42.658;23.256;2024-03-22T03:34:16;93882.41;;;5.22;58.80
41690;BME280;27372;42.658;23.256;2024-03-22T03:36:41;93881.38;;;5.56;58.10
41690;BME280;27372;42.658;23.256;2024-03-22T03:39:07;93876.78;;;5.58;57.73
41690;BME280;27372;42.658;23.256;2024-03-22T03:41:32;93886.22;;;5.26;58.79
41690;BME280;27372;42.658;23.256;2024-03-22T03:43:57;93880.56;;;4.89;59.80
41690;BME280;27372;42.658;23.256;2024-03-22T03:46:23;93883.50;;;4.52;61.48
41690;BME280;27372;42.658;23.256;2024-03-22T03:48:48;93887.34;;;4.70;61.54
41690;BME280;27372;42.658;23.256;2024-03-22T03:51:14;93884.22;;;4.26;62.39
41690;BME280;27372;42.658;23.256;2024-03-22T03:53:39;93885.09;;;4.04;63.92
41690;BME280;27372;42.658;23.256;2024-03-22T03:56:04;93894.81;;;4.31;62.78
41690;BME280;27372;42.658;23.256;2024-03-22T03:58:30;93903.53;;;4.65;61.82
41690;BME280;27372;42.658;23.256;2024-03-22T04:00:55;93902.19;;;4.82;60.94
41690;BME280;27372;42.658;23.256;2024-03-22T04:03:21;93902.38;;;4.94;60.41
41690;BME280;27372;42.658;23.256;2024-03-22T04:05:46;93908.00;;;4.85;60.38
41690;BME280;27372;42.658;23.256;2024-03-22T04:08:11;93901.59;;;4.94;60.64
41690;BME280;27372;42.658;23.256;2024-03-22T04:10:37;93906.00;;;4.87;60.68
41690;BME280;27372;42.658;23.256;2024-03-22T04:13:02;93914.72;;;4.59;62.05
41690;BME280;27372;42.658;23.256;2024-03-22T04:15:28;93920.72;;;4.53;62.60
41690;BME280;27372;42.658;23.256;2024-03-22T04:17:56;93924.34;;;4.65;61.73
41690;BME280;27372;42.658;23.256;2024-03-22T04:20:21;93913.38;;;4.76;60.92
41690;BME280;27372;42.658;23.256;2024-03-22T04:22:47;93913.59;;;4.88;61.04
41690;BME280;27372;42.658;23.256;2024-03-22T04:25:14;93914.41;;;5.02;60.49
41690;BME280;27372;42.658;23.256;2024-03-22T04:27:40;93915.22;;;4.96;60.85
41690;BME280;27372;42.658;23.256;2024-03-22T04:30:06;93916.19;;;4.81;61.17
41690;BME280;27372;42.658;23.256;2024-03-22T04:32:32;93919.41;;;4.84;61.88
41690;BME280;27372;42.658;23.256;2024-03-22T04:34:57;93914.56;;;4.80;61.66
41690;BME280;27372;42.658;23.256;2024-03-22T04:37:23;93924.38;;;4.72;61.36
41690;BME280;27372;42.658;23.256;2024-03-22T04:39:49;93928.75;;;4.71;61.30
41690;BME280;27372;42.658;23.256;2024-03-22T04:42:14;93923.56;;;4.71;61.32
41690;BME280;27372;42.658;23.256;2024-03-22T04:44:41;93930.59;;;4.77;60.93
41690;BME280;27372;42.658;23.256;2024-03-22T04:47:06;93930.41;;;4.86;60.71
41690;BME280;27372;42.658;23.256;2024-03-22T04:49:32;93938.84;;;4.88;60.84
41690;BME280;27372;42.658;23.256;2024-03-22T04:51:57;93925.97;;;4.79;60.42
41690;BME280;27372;42.658;23.256;2024-03-22T04:54:22;93932.63;;;4.95;60.42
41690;BME280;27372;42.658;23.256;2024-03-22T04:56:48;93928.44;;;5.01;60.25
41690;BME280;27372;42.658;23.256;2024-03-22T04:59:13;93931.69;;;5.17;60.56
41690;BME280;27372;42.658;23.256;2024-03-22T05:01:39;93940.28;;;5.24;59.75
41690;BME280;27372;42.658;23.256;2024-03-22T05:04:04;93937.50;;;5.32;59.93
41690;BME280;27372;42.658;23.256;2024-03-22T05:06:29;93941.50;;;5.41;59.37
41690;BME280;27372;42.658;23.256;2024-03-22T05:08:55;93941.28;;;5.50;59.21
41690;BME280;27372;42.658;23.256;2024-03-22T05:11:20;93946.50;;;5.50;59.27
41690;BME280;27372;42.658;23.256;2024-03-22T05:13:45;93946.72;;;5.62;58.47
41690;BME280;27372;42.658;23.256;2024-03-22T05:16:11;93949.31;;;5.75;57.78
41690;BME280;27372;42.658;23.256;2024-03-22T05:18:37;93948.50;;;5.88;58.08
41690;BME280;27372;42.658;23.256;2024-03-22T05:21:03;93957.13;;;5.95;57.19
41690;BME280;27372;42.658;23.256;2024-03-22T05:23:29;93959.75;;;6.09;57.43
41690;BME280;27372;42.658;23.256;2024-03-22T05:25:54;93957.50;;;6.26;56.61
41690;BME280;27372;42.658;23.256;2024-03-22T05:28:19;93954.25;;;6.37;56.62
41690;BME280;27372;42.658;23.256;2024-03-22T05:30:45;93957.19;;;6.54;56.14
41690;BME280;27372;42.658;23.256;2024-03-22T05:33:11;93949.13;;;6.62;56.07
41690;BME280;27372;42.658;23.256;2024-03-22T05:35:36;93967.00;;;6.65;56.01
41690;BME280;27372;42.658;23.256;2024-03-22T05:38:02;93962.69;;;6.91;55.73
41690;BME280;27372;42.658;23.256;2024-03-22T05:40:27;93960.84;;;6.98;56.41
41690;BME280;27372;42.658;23.256;2024-03-22T05:42:52;93965.03;;;7.06;56.92
41690;BME280;27372;42.658;23.256;2024-03-22T05:45:18;93970.16;;;7.20;55.98
41690;BME280;27372;42.658;23.256;2024-03-22T05:47:43;93966.50;;;7.27;56.98
41690;BME280;27372;42.658;23.256;2024-03-22T05:50:09;93962.47;;;7.32;56.81
41690;BME280;27372;42.658;23.256;2024-03-22T05:52:34;93968.41;;;7.45;56.38
41690;BME280;27372;42.658;23.256;2024-03-22T05:54:59;93968.41;;;7.45;55.23
41690;BME280;27372;42.658;23.256;2024-03-22T05:57:25;93979.78;;;7.58;54.16
41690;BME280;27372;42.658;23.256;2024-03-22T05:59:50;93979.97;;;7.56;53.28
41690;BME280;27372;42.658;23.256;2024-03-22T06:02:16;93979.91;;;7.38;53.63
41690;BME280;27372;42.658;23.256;2024-03-22T06:04:42;93984.59;;;7.54;53.11
41690;BME280;27372;42.658;23.256;2024-03-22T06:07:08;93983.13;;;7.65;52.57
41690;BME280;27372;42.658;23.256;2024-03-22T06:09:33;93981.66;;;7.44;53.13
41690;BME280;27372;42.658;23.256;2024-03-22T06:12:15;93975.97;;;7.54;52.73
41690;BME280;27372;42.658;23.256;2024-03-22T06:14:41;93980.94;;;7.62;52.77
41690;BME280;27372;42.658;23.256;2024-03-22T06:17:07;93975.06;;;7.67;51.77
41690;BME280;27372;42.658;23.256;2024-03-22T06:19:33;93976.22;;;7.77;51.59
41690;BME280;27372;42.658;23.256;2024-03-22T06:21:58;93978.50;;;7.67;52.74
41690;BME280;27372;42.658;23.256;2024-03-22T06:24:24;93981.44;;;7.77;51.40
41690;BME280;27372;42.658;23.256;2024-03-22T06:26:49;93979.88;;;7.95;51.68
41690;BME280;27372;42.658;23.256;2024-03-22T06:29:15;93984.94;;;7.65;51.06
41690;BME280;27372;42.658;23.256;2024-03-22T06:31:43;93986.59;;;7.84;50.81
41690;BME280;27372;42.658;23.256;2024-03-22T06:34:09;93990.97;;;7.90;50.62
41690;BME280;27372;42.658;23.256;2024-03-22T06:36:34;93993.59;;;8.16;49.79
41690;BME280;27372;42.658;23.256;2024-03-22T06:39:00;93987.75;;;8.14;48.30
41690;BME280;27372;42.658;23.256;2024-03-22T06:41:27;93994.69;;;8.45;49.11
41690;BME280;27372;42.658;23.256;2024-03-22T06:43:53;93987.97;;;8.56;48.24
41690;BME280;27372;42.658;23.256;2024-03-22T06:46:18;93990.69;;;8.43;49.06
41690;BME280;27372;42.658;23.256;2024-03-22T06:48:44;93999.25;;;8.57;49.23
41690;BME280;27372;42.658;23.256;2024-03-22T06:51:09;93997.97;;;8.40;47.37
41690;BME280;27372;42.658;23.256;2024-03-22T06:53:35;93995.59;;;8.58;46.72
41690;BME280;27372;42.658;23.256;2024-03-22T06:56:00;94005.06;;;8.77;46.08
41690;BME280;27372;42.658;23.256;2024-03-22T06:58:26;94007.38;;;8.85;46.18
41690;BME280;27372;42.658;23.256;2024-03-22T07:00:51;94006.41;;;9.17;45.35
41690;BME280;27372;42.658;23.256;2024-03-22T07:03:16;94003.78;;;9.17;45.76
41690;BME280;27372;42.658;23.256;2024-03-22T07:05:42;94007.78;;;9.20;46.71
41690;BME280;27372;42.658;23.256;2024-03-22T07:08:08;94008.72;;;9.25;46.21
41690;BME280;27372;42.658;23.256;2024-03-22T07:10:38;94007.22;;;9.60;44.37
41690;BME280;27372;42.658;23.256;2024-03-22T07:13:04;94010.50;;;9.86;43.35
41690;BME280;27372;42.658;23.256;2024-03-22T07:15:30;93996.91;;;9.77;44.37
41690;BME280;27372;42.658;23.256;2024-03-22T07:17:57;94016.03;;;9.77;45.19
41690;BME280;27372;42.658;23.256;2024-03-22T07:20:23;94010.25;;;9.87;44.55
41690;BME280;27372;42.658;23.256;2024-03-22T07:22:48;94003.25;;;9.69;44.57
41690;BME280;27372;42.658;23.256;2024-03-22T07:25:14;94016.09;;;10.01;44.10
41690;BME280;27372;42.658;23.256;2024-03-22T07:27:39;94011.78;;;10.31;43.09
41690;BME280;27372;42.658;23.256;2024-03-22T07:30:05;94010.66;;;10.50;43.12
41690;BME280;27372;42.658;23.256;2024-03-22T07:32:31;94015.69;;;10.52;42.93
41690;BME280;27372;42.658;23.256;2024-03-22T07:34:57;94010.31;;;10.59;42.68
41690;BME280;27372;42.658;23.256;2024-03-22T07:37:22;94009.75;;;10.56;42.41
41690;BME280;27372;42.658;23.256;2024-03-22T07:39:48;94011.31;;;10.81;42.29
41690;BME280;27372;42.658;23.256;2024-03-22T07:42:14;94008.03;;;11.15;41.30
41690;BME280;27372;42.658;23.256;2024-03-22T07:44:40;94012.91;;;11.23;41.92
41690;BME280;27372;42.658;23.256;2024-03-22T07:47:05;94016.94;;;11.14;41.64
41690;BME280;27372;42.658;23.256;2024-03-22T07:49:31;94003.72;;;11.38;41.43
41690;BME280;27372;42.658;23.256;2024-03-22T07:51:58;94011.97;;;11.29;42.02
41690;BME280;27372;42.658;23.256;2024-03-22T07:54:23;94012.50;;;11.60;40.83
41690;BME280;27372;42.658;23.256;2024-03-22T07:56:48;94017.41;;;11.86;41.18
41690;BME280;27372;42.658;23.256;2024-03-22T07:59:14;94016.72;;;11.90;40.70
41690;BME280;27372;42.658;23.256;2024-03-22T08:01:40;94018.84;;;12.05;40.80
41690;BME280;27372;42.658;23.256;2024-03-22T08:04:05;94014.69;;;12.26;40.81
41690;BME280;27372;42.658;23.256;2024-03-22T08:06:31;94028.94;;;12.48;39.95
41690;BME280;27372;42.658;23.256;2024-03-22T08:08:56;94029.28;;;12.51;40.12
41690;BME280;27372;42.658;23.256;2024-03-22T08:11:22;94026.28;;;12.65;39.59
41690;BME280;27372;42.658;23.256;2024-03-22T08:13:47;94021.09;;;12.92;38.39
41690;BME280;27372;42.658;23.256;2024-03-22T08:16:13;94022.56;;;12.83;38.63
41690;BME280;27372;42.658;23.256;2024-03-22T08:18:38;94007.50;;;13.23;38.35
41690;BME280;27372;42.658;23.256;2024-03-22T08:21:04;94022.88;;;13.31;37.57
41690;BME280;27372;42.658;23.256;2024-03-22T08:23:29;94015.63;;;13.43;37.62
41690;BME280;27372;42.658;23.256;2024-03-22T08:25:55;94009.78;;;13.63;37.32
41690;BME280;27372;42.658;23.256;2024-03-22T08:28:22;94009.44;;;13.32;38.15
41690;BME280;27372;42.658;23.256;2024-03-22T08:30:47;94011.97;;;13.44;37.12
41690;BME280;27372;42.658;23.256;2024-03-22T08:33:12;94000.66;;;13.76;36.67
41690;BME280;27372;42.658;23.256;2024-03-22T08:35:39;94009.53;;;13.92;36.69
41690;BME280;27372;42.658;23.256;2024-03-22T08:38:04;94016.34;;;14.21;35.29
41690;BME280;27372;42.658;23.256;2024-03-22T08:40:35;94001.81;;;14.18;34.27
41690;BME280;27372;42.658;23.256;2024-03-22T08:43:01;94019.50;;;14.60;34.76
41690;BME280;27372;42.658;23.256;2024-03-22T08:45:26;94012.13;;;15.11;34.03
41690;BME280;27372;42.658;23.256;2024-03-22T08:47:52;94019.34;;;15.20;33.40
41690;BME280;27372;42.658;23.256;2024-03-22T08:50:17;94014.91;;;15.42;33.82
41690;BME280;27372;42.658;23.256;2024-03-22T08:52:42;94021.28;;;15.51;33.09
41690;BME280;27372;42.658;23.256;2024-03-22T08:55:12;94012.19;;;15.16;34.21
41690;BME280;27372;42.658;23.256;2024-03-22T08:57:42;94016.19;;;15.34;34.32
41690;BME280;27372;42.658;23.256;2024-03-22T09:00:10;94010.53;;;15.89;33.13
41690;BME280;27372;42.658;23.256;2024-03-22T09:02:36;94013.19;;;15.99;32.41
41690;BME280;27372;42.658;23.256;2024-03-22T09:05:03;94010.16;;;15.59;32.31
41690;BME280;27372;42.658;23.256;2024-03-22T09:07:28;94017.56;;;15.57;32.34
41690;BME280;27372;42.658;23.256;2024-03-22T09:09:54;94009.66;;;15.78;31.99
41690;BME280;27372;42.658;23.256;2024-03-22T09:12:19;94014.75;;;15.84;31.96
41690;BME280;27372;42.658;23.256;2024-03-22T09:14:45;93999.56;;;15.44;31.89
41690;BME280;27372;42.658;23.256;2024-03-22T09:17:12;94001.72;;;15.73;33.14
41690;BME280;27372;42.658;23.256;2024-03-22T09:19:37;93995.34;;;15.53;32.24
41690;BME280;27372;42.658;23.256;2024-03-22T09:22:03;93999.41;;;16.12;31.79
41690;BME280;27372;42.658;23.256;2024-03-22T09:24:31;93987.50;;;16.05;31.79
41690;BME280;27372;42.658;23.256;2024-03-22T09:26:56;93990.91;;;16.36;31.73
41690;BME280;27372;42.658;23.256;2024-03-22T09:29:21;93993.03;;;16.08;30.29
41690;BME280;27372;42.658;23.256;2024-03-22T09:31:47;93993.25;;;15.71;30.22
41690;BME280;27372;42.658;23.256;2024-03-22T09:34:12;93989.28;;;16.56;30.41
41690;BME280;27372;42.658;23.256;2024-03-22T09:36:38;93996.09;;;17.03;30.37
41690;BME280;27372;42.658;23.256;2024-03-22T09:39:03;94000.28;;;17.20;29.46
41690;BME280;27372;42.658;23.256;2024-03-22T09:41:31;93974.91;;;17.88;28.87
41690;BME280;27372;42.658;23.256;2024-03-22T09:43:59;93982.91;;;18.23;28.46
41690;BME280;27372;42.658;23.256;2024-03-22T09:46:27;93981.00;;;18.58;28.13
41690;BME280;27372;42.658;23.256;2024-03-22T09:48:54;93988.75;;;18.25;28.07
41690;BME280;27372;42.658;23.256;2024-03-22T09:51:20;93992.16;;;18.30;27.99
41690;BME280;27372;42.658;23.256;2024-03-22T09:53:48;93977.63;;;18.52;28.28
41690;BME280;27372;42.658;23.256;2024-03-22T09:56:15;93976.84;;;18.52;27.71
41690;BME280;27372;42.658;23.256;2024-03-22T09:58:41;93982.81;;;19.16;27.46
41690;BME280;27372;42.658;23.256;2024-03-22T10:01:07;93991.41;;;19.51;26.85
41690;BME280;27372;42.658;23.256;2024-03-22T10:03:33;93979.84;;;19.99;26.34
41690;BME280;27372;42.658;23.256;2024-03-22T10:05:59;93970.47;;;20.02;26.40
41690;BME280;27372;42.658;23.256;2024-03-22T10:08:24;93981.56;;;19.52;26.48
41690;BME280;27372;42.658;23.256;2024-03-22T10:10:50;93973.44;;;20.00;26.08
41690;BME280;27372;42.658;23.256;2024-03-22T10:13:15;93968.44;;;19.36;26.62
41690;BME280;27372;42.658;23.256;2024-03-22T10:15:40;93967.72;;;18.28;27.22
41690;BME280;27372;42.658;23.256;2024-03-22T10:18:06;93974.72;;;19.02;26.70
41690;BME280;27372;42.658;23.256;2024-03-22T10:20:32;93972.44;;;19.15;26.10
41690;BME280;27372;42.658;23.256;2024-03-22T10:22:59;93961.91;;;19.67;26.11
41690;BME280;27372;42.658;23.256;2024-03-22T10:25:28;93965.91;;;19.07;27.28
41690;BME280;27372;42.658;23.256;2024-03-22T10:27:55;93972.63;;;20.33;26.17
41690;BME280;27372;42.658;23.256;2024-03-22T10:30:21;93963.69;;;19.33;26.24
41690;BME280;27372;42.658;23.256;2024-03-22T10:32:48;93961.59;;;19.30;26.71
41690;BME280;27372;42.658;23.256;2024-03-22T10:35:15;93951.97;;;20.25;26.72
41690;BME280;27372;42.658;23.256;2024-03-22T10:37:40;93948.88;;;20.04;25.91
41690;BME280;27372;42.658;23.256;2024-03-22T10:40:07;93954.69;;;20.06;25.45
41690;BME280;27372;42.658;23.256;2024-03-22T10:42:40;93944.41;;;19.99;25.86
41690;BME280;27372;42.658;23.256;2024-03-22T10:45:09;93950.44;;;20.05;26.07
41690;BME280;27372;42.658;23.256;2024-03-22T10:47:36;93934.72;;;19.51;26.34
41690;BME280;27372;42.658;23.256;2024-03-22T10:50:10;93925.59;;;19.71;26.50
41690;BME280;27372;42.658;23.256;2024-03-22T10:52:48;93942.38;;;20.57;25.75
41690;BME280;27372;42.658;23.256;2024-03-22T10:55:26;93938.31;;;20.59;24.72
41690;BME280;27372;42.658;23.256;2024-03-22T10:57:56;93932.63;;;20.80;24.88
41690;BME280;27372;42.658;23.256;2024-03-22T11:00:32;93927.28;;;19.48;25.87
41690;BME280;27372;42.658;23.256;2024-03-22T11:02:59;93926.22;;;20.34;25.41
41690;BME280;27372;42.658;23.256;2024-03-22T11:05:27;93932.31;;;21.09;25.22
41690;BME280;27372;42.658;23.256;2024-03-22T11:07:59;93923.91;;;20.88;24.06
41690;BME280;27372;42.658;23.256;2024-03-22T11:10:34;93924.50;;;21.13;23.65
41690;BME280;27372;42.658;23.256;2024-03-22T11:13:06;93919.28;;;21.59;23.55
41690;BME280;27372;42.658;23.256;2024-03-22T11:15:33;93910.78;;;21.79;23.00
41690;BME280;27372;42.658;23.256;2024-03-22T11:17:59;93919.97;;;20.86;23.76
41690;BME280;27372;42.658;23.256;2024-03-22T11:20:25;93909.69;;;22.03;23.32
41690;BME280;27372;42.658;23.256;2024-03-22T11:22:53;93915.22;;;20.83;23.63
41690;BME280;27372;42.658;23.256;2024-03-22T11:25:19;93910.84;;;19.79;24.60
41690;BME280;27372;42.658;23.256;2024-03-22T11:27:45;93900.59;;;19.53;24.60
41690;BME280;27372;42.658;23.256;2024-03-22T11:30:11;93902.66;;;19.56;25.78
41690;BME280;27372;42.658;23.256;2024-03-22T11:32:37;93892.28;;;18.97;25.63
41690;BME280;27372;42.658;23.256;2024-03-22T11:35:13;93895.13;;;19.44;25.87
41690;BME280;27372;42.658;23.256;2024-03-22T11:37:39;93898.91;;;18.75;26.53
41690;BME280;27372;42.658;23.256;2024-03-22T11:40:05;93896.50;;;19.42;26.17
41690;BME280;27372;42.658;23.256;2024-03-22T11:42:34;93901.16;;;20.63;24.88
41690;BME280;27372;42.658;23.256;2024-03-22T11:45:01;93897.72;;;21.78;23.27
41690;BME280;27372;42.658;23.256;2024-03-22T11:47:27;93886.16;;;20.95;24.54
41690;BME280;27372;42.658;23.256;2024-03-22T11:49:54;93894.53;;;20.32;25.19
41690;BME280;27372;42.658;23.256;2024-03-22T11:52:30;93898.50;;;20.49;24.54
41690;BME280;27372;42.658;23.256;2024-03-22T11:54:56;93884.38;;;19.68;24.35
41690;BME280;27372;42.658;23.256;2024-03-22T11:57:22;93886.22;;;20.34;24.41
41690;BME280;27372;42.658;23.256;2024-03-22T11:59:48;93870.91;;;20.68;23.71
41690;BME280;27372;42.658;23.256;2024-03-22T12:02:13;93866.81;;;21.63;23.72
41690;BME280;27372;42.658;23.256;2024-03-22T12:04:43;93856.59;;;21.42;23.95
41690;BME280;27372;42.658;23.256;2024-03-22T12:07:13;93872.13;;;21.40;23.41
41690;BME280;27372;42.658;23.256;2024-03-22T12:09:40;93864.41;;;21.02;23.25
41690;BME280;27372;42.658;23.256;2024-03-22T12:12:08;93866.09;;;20.70;23.72
41690;BME280;27372;42.658;23.256;2024-03-22T12:14:34;93860.84;;;21.43;23.53
41690;BME280;27372;42.658;23.256;2024-03-22T12:17:00;93854.41;;;21.90;23.06
41690;BME280;27372;42.658;23.256;2024-03-22T12:19:25;93855.47;;;22.11;22.21
41690;BME280;27372;42.658;23.256;2024-03-22T12:21:51;93855.41;;;19.81;24.30
41690;BME280;27372;42.658;23.256;2024-03-22T12:24:16;93844.06;;;19.56;24.97
41690;BME280;27372;42.658;23.256;2024-03-22T12:26:42;93854.53;;;20.32;24.14
41690;BME280;27372;42.658;23.256;2024-03-22T12:29:07;93836.16;;;21.60;23.28
41690;BME280;27372;42.658;23.256;2024-03-22T12:31:32;93835.22;;;21.87;23.29
41690;BME280;27372;42.658;23.256;2024-03-22T12:33:58;93829.81;;;22.82;22.67
41690;BME280;27372;42.658;23.256;2024-03-22T12:36:24;93833.84;;;22.53;21.93
41690;BME280;27372;42.658;23.256;2024-03-22T12:38:50;93837.59;;;23.19;22.14
41690;BME280;27372;42.658;23.256;2024-03-22T12:41:16;93842.13;;;21.43;22.85
41690;BME280;27372;42.658;23.256;2024-03-22T12:43:41;93832.38;;;22.15;22.17
41690;BME280;27372;42.658;23.256;2024-03-22T12:46:08;93826.13;;;21.43;22.88
41690;BME280;27372;42.658;23.256;2024-03-22T12:48:33;93839.72;;;20.82;22.91